Time;durP1;ratioP1;P1;durP2;ratioP2;P2;SDS_P1;SDS_P2;PMS_P1;PMS_P2;Temp;Humidity;BMP_temperature;BMP_pressure;BME280_temperature;BME280_humidity;BME280_pressure;Samples;Min_cycle;Max_cycle;Signal;HPM_P1;HPM_P2
2022/11/09 00:00:42;;;;;;;4.85;1.65;;;13.20;99.90;;;;;;5106059;27;20400;-67
2022/11/09 00:03:08;;;;;;;9.55;2.22;;;13.20;99.90;;;;;;5111617;27;20094;-65
2022/11/09 00:05:34;;;;;;;7.70;1.90;;;13.20;99.90;;;;;;5090790;28;20423;-67
2022/11/09 00:08:00;;;;;;;5.47;1.58;;;13.20;99.90;;;;;;5107267;28;20096;-67
2022/11/09 00:10:25;;;;;;;6.78;1.85;;;13.20;99.90;;;;;;5110994;28;20094;-66
2022/11/09 00:12:51;;;;;;;5.70;1.60;;;13.20;99.90;;;;;;5105508;28;20565;-65
2022/11/09 00:15:17;;;;;;;7.18;1.98;;;13.20;99.90;;;;;;5108550;28;20074;-68
2022/11/09 00:17:42;;;;;;;5.60;1.80;;;13.20;99.90;;;;;;5102855;28;20042;-66
2022/11/09 00:20:08;;;;;;;5.13;1.60;;;13.20;99.90;;;;;;5108985;28;20028;-67
2022/11/09 00:22:34;;;;;;;6.78;1.55;;;13.20;99.90;;;;;;5112059;27;20043;-67
2022/11/09 00:25:00;;;;;;;5.50;1.60;;;13.20;99.90;;;;;;5113571;27;20439;-67
2022/11/09 00:27:26;;;;;;;5.43;1.55;;;13.20;99.90;;;;;;5114383;27;20093;-68
2022/11/09 00:29:52;;;;;;;5.03;1.85;;;13.20;99.90;;;;;;5107458;27;20047;-68
2022/11/09 00:32:17;;;;;;;5.15;1.77;;;13.20;99.90;;;;;;5114296;27;20054;-67
2022/11/09 00:34:43;;;;;;;6.70;1.83;;;13.20;99.90;;;;;;5111591;27;20489;-65
2022/11/09 00:37:09;;;;;;;4.85;1.45;;;13.20;99.90;;;;;;5114514;27;20118;-68
2022/11/09 00:39:34;;;;;;;4.53;1.80;;;13.20;99.90;;;;;;5108190;27;20038;-68
2022/11/09 00:42:00;;;;;;;8.63;1.70;;;13.20;99.90;;;;;;5112103;27;20035;-65
2022/11/09 00:44:25;;;;;;;6.28;1.90;;;13.20;99.90;;;;;;5112254;27;20035;-68
2022/11/09 00:46:51;;;;;;;3.88;1.73;;;13.20;99.90;;;;;;5114046;27;20167;-67
2022/11/09 00:49:17;;;;;;;4.78;1.70;;;13.20;99.90;;;;;;5112540;27;20555;-67
2022/11/09 00:51:42;;;;;;;3.97;1.70;;;13.20;99.90;;;;;;5112858;27;20047;-65
2022/11/09 00:54:08;;;;;;;5.47;2.78;;;13.30;99.90;;;;;;5111103;27;20415;-67
2022/11/09 00:56:34;;;;;;;8.15;2.00;;;13.20;99.90;;;;;;5113252;27;20115;-65
2022/11/09 00:59:00;;;;;;;3.95;1.65;;;13.20;99.90;;;;;;5114440;27;20031;-68
2022/11/09 01:01:25;;;;;;;6.03;1.90;;;13.20;99.90;;;;;;5132108;27;20035;-68
2022/11/09 01:03:51;;;;;;;5.95;1.88;;;13.20;99.90;;;;;;5109626;27;20085;-66
2022/11/09 01:06:20;;;;;;;4.75;1.67;;;13.20;99.90;;;;;;5095991;27;20043;-65
2022/11/09 01:08:46;;;;;;;10.23;2.22;;;13.10;99.90;;;;;;5112243;27;20092;-66
2022/11/09 01:11:12;;;;;;;4.57;1.67;;;13.10;99.90;;;;;;5130782;27;20043;-66
2022/11/09 01:13:38;;;;;;;5.45;1.90;;;13.10;99.90;;;;;;5110260;27;20043;-64
2022/11/09 01:16:07;;;;;;;8.10;1.67;;;13.10;99.90;;;;;;5108318;28;20047;-66
2022/11/09 01:18:33;;;;;;;4.97;1.45;;;13.10;99.90;;;;;;5111119;27;20042;-68
2022/11/09 01:20:58;;;;;;;5.20;1.60;;;13.10;99.90;;;;;;5112690;27;20035;-66
2022/11/09 01:23:24;;;;;;;5.28;2.03;;;13.10;99.90;;;;;;5130887;27;20046;-65
2022/11/09 01:25:58;;;;;;;4.95;1.48;;;13.10;99.90;;;;;;5107988;27;20132;-67
2022/11/09 01:28:23;;;;;;;5.82;1.80;;;13.10;99.90;;;;;;5113288;27;20047;-67
2022/11/09 01:30:49;;;;;;;6.97;1.73;;;13.00;99.90;;;;;;5112184;27;20053;-65
2022/11/09 01:33:15;;;;;;;7.00;1.80;;;13.00;99.90;;;;;;5105036;27;20042;-67
2022/11/09 01:35:40;;;;;;;7.53;2.25;;;13.00;99.90;;;;;;5107351;27;20130;-66
2022/11/09 01:38:07;;;;;;;5.60;1.95;;;12.90;99.90;;;;;;5095679;27;20066;-66
2022/11/09 01:40:36;;;;;;;5.60;2.00;;;12.90;99.90;;;;;;5099211;27;20043;-66
2022/11/09 01:43:13;;;;;;;6.45;2.20;;;12.90;99.90;;;;;;5083905;27;20122;-67
2022/11/09 01:45:38;;;;;;;4.22;1.77;;;12.90;99.90;;;;;;5105118;27;20087;-66
2022/11/09 01:48:09;;;;;;;7.05;1.70;;;12.80;99.90;;;;;;5097798;27;20137;-67
2022/11/09 01:51:01;;;;;;;6.35;1.63;;;12.80;99.90;;;;;;5106718;27;20035;-66
2022/11/09 01:53:30;;;;;;;5.50;1.83;;;12.80;99.90;;;;;;5110492;27;20043;-66
2022/11/09 01:55:59;;;;;;;19.13;3.03;;;12.80;99.90;;;;;;5110263;27;20116;-66
2022/11/09 01:58:30;;;;;;;6.43;1.75;;;12.80;99.90;;;;;;5112074;27;20051;-66
2022/11/09 02:00:58;;;;;;;7.45;1.60;;;12.70;99.90;;;;;;5110216;27;20043;-67
2022/11/09 02:03:30;;;;;;;6.43;1.77;;;12.70;99.90;;;;;;5112074;27;20480;-67
2022/11/09 02:05:58;;;;;;;7.93;2.22;;;12.70;99.90;;;;;;5111920;27;20118;-66
2022/11/09 02:08:25;;;;;;;7.10;1.40;;;12.60;99.90;;;;;;5129936;27;20129;-66
2022/11/09 02:11:03;;;;;;;5.82;1.40;;;12.60;99.90;;;;;;5106033;27;20043;-67
2022/11/09 02:13:30;;;;;;;7.22;1.65;;;12.60;99.90;;;;;;5107744;27;20047;-67
2022/11/09 02:15:56;;;;;;;8.20;1.77;;;12.60;99.90;;;;;;5108339;27;20050;-66
2022/11/09 02:18:22;;;;;;;6.43;1.90;;;12.60;99.90;;;;;;5130378;27;20035;-66
2022/11/09 02:20:53;;;;;;;5.32;1.55;;;12.60;99.90;;;;;;5108627;27;20039;-67
2022/11/09 02:23:20;;;;;;;9.57;1.85;;;12.50;99.90;;;;;;5111824;27;20035;-66
2022/11/09 02:25:50;;;;;;;4.47;1.63;;;12.50;99.90;;;;;;5109954;27;20047;-66
2022/11/09 02:28:16;;;;;;;8.77;1.88;;;12.50;99.90;;;;;;5129703;27;20043;-65
2022/11/09 02:30:45;;;;;;;9.55;1.70;;;12.50;99.90;;;;;;5111662;27;20042;-66
2022/11/09 02:33:11;;;;;;;6.75;1.65;;;12.50;99.90;;;;;;5110748;27;20035;-67
2022/11/09 02:35:36;;;;;;;6.68;1.58;;;12.50;99.90;;;;;;5088131;27;20402;-67
2022/11/09 02:38:02;;;;;;;5.80;1.50;;;12.50;99.90;;;;;;5112017;27;20054;-67
2022/11/09 02:40:32;;;;;;;7.30;1.55;;;12.50;99.90;;;;;;5089547;27;20042;-64
2022/11/09 02:43:00;;;;;;;6.10;1.50;;;12.50;99.90;;;;;;5113412;27;20035;-67
2022/11/09 02:45:26;;;;;;;7.50;1.52;;;12.50;99.90;;;;;;5109940;27;20134;-64
2022/11/09 02:47:51;;;;;;;8.20;2.30;;;12.40;99.90;;;;;;5112004;27;20530;-65
2022/11/09 02:50:17;;;;;;;8.85;2.00;;;12.40;99.90;;;;;;5090277;27;20042;-65
2022/11/09 02:52:42;;;;;;;5.70;1.50;;;12.40;99.90;;;;;;5128667;27;20031;-65
2022/11/09 02:55:08;;;;;;;8.00;1.63;;;12.40;99.90;;;;;;5108321;27;20050;-67
2022/11/09 02:57:34;;;;;;;8.68;1.85;;;12.40;99.90;;;;;;5111781;27;20039;-66
2022/11/09 03:00:00;;;;;;;6.15;1.85;;;12.40;99.90;;;;;;5109499;27;20447;-64
2022/11/09 03:02:25;;;;;;;8.27;2.22;;;12.30;99.90;;;;;;5110448;27;20043;-65
2022/11/09 03:04:51;;;;;;;6.45;1.80;;;12.40;99.90;;;;;;5110286;27;20408;-67
2022/11/09 03:07:17;;;;;;;6.20;1.60;;;12.40;99.90;;;;;;5108936;27;20038;-66
2022/11/09 03:09:42;;;;;;;5.93;1.70;;;12.40;99.90;;;;;;5111038;27;20035;-67
2022/11/09 03:15:07;;;;;;;4.93;1.45;;;12.30;99.90;;;;;;5066389;28;20126;-68
2022/11/09 03:17:33;;;;;;;9.10;2.33;;;12.30;99.90;;;;;;5046757;28;20036;-66
2022/11/09 03:19:59;;;;;;;6.85;1.70;;;12.30;99.90;;;;;;5064407;28;20127;-67
2022/11/09 03:22:25;;;;;;;9.07;1.52;;;12.30;99.90;;;;;;5066000;28;20197;-67
2022/11/09 03:24:50;;;;;;;4.93;1.90;;;12.20;99.90;;;;;;5050427;28;20059;-64
2022/11/09 03:27:16;;;;;;;10.73;2.17;;;12.20;99.90;;;;;;5045108;28;20506;-66
2022/11/09 03:29:42;;;;;;;9.48;1.83;;;12.20;99.90;;;;;;5045597;28;20153;-68
2022/11/09 03:32:08;;;;;;;3.28;1.27;;;12.20;99.90;;;;;;5047344;28;20045;-66
2022/11/09 03:34:34;;;;;;;7.90;1.70;;;12.10;99.90;;;;;;5048241;28;20131;-68
2022/11/09 03:37:00;;;;;;;7.97;1.85;;;12.10;99.90;;;;;;5045693;28;20194;-66
2022/11/09 03:39:26;;;;;;;8.82;2.00;;;12.00;99.90;;;;;;5066500;28;20131;-67
2022/11/09 03:41:51;;;;;;;5.70;1.50;;;12.10;99.90;;;;;;5047395;28;20127;-68
2022/11/09 03:44:18;;;;;;;9.55;1.73;;;12.10;99.90;;;;;;5065650;28;21572;-65
2022/11/09 03:46:44;;;;;;;7.35;1.67;;;12.10;99.90;;;;;;5046756;28;20044;-67
2022/11/09 03:49:10;;;;;;;5.70;1.52;;;12.10;99.90;;;;;;5047592;28;20059;-66
2022/11/09 03:51:36;;;;;;;8.60;1.65;;;12.10;99.90;;;;;;5103637;27;20577;-67
2022/11/09 03:54:01;;;;;;;8.02;1.88;;;12.10;99.90;;;;;;5108834;27;20100;-66
2022/11/09 03:56:27;;;;;;;4.95;1.75;;;12.10;99.90;;;;;;5093575;27;20051;-66
2022/11/09 03:58:53;;;;;;;5.00;1.20;;;12.10;99.90;;;;;;5106635;27;20158;-66
2022/11/09 04:01:18;;;;;;;9.77;1.73;;;12.10;99.90;;;;;;5105770;28;20550;-67
2022/11/09 04:03:44;;;;;;;5.93;1.92;;;12.10;99.90;;;;;;5108706;28;20047;-67
2022/11/09 04:06:09;;;;;;;7.00;1.70;;;12.10;99.90;;;;;;5112571;28;20132;-65
2022/11/09 04:08:35;;;;;;;8.52;2.08;;;12.10;99.90;;;;;;5106669;28;20046;-68
2022/11/09 04:11:00;;;;;;;6.45;1.98;;;12.10;99.90;;;;;;5107565;28;20043;-65
2022/11/09 04:13:26;;;;;;;6.15;2.28;;;12.10;99.90;;;;;;5105538;28;20047;-66
2022/11/09 04:15:52;;;;;;;8.35;1.67;;;12.00;99.90;;;;;;5109954;28;20035;-67
2022/11/09 04:18:17;;;;;;;7.13;1.60;;;12.10;99.90;;;;;;5103608;28;20058;-65
2022/11/09 04:20:43;;;;;;;7.85;1.52;;;12.10;99.90;;;;;;5108821;28;20377;-65
2022/11/09 04:23:11;;;;;;;4.85;1.50;;;12.00;99.90;;;;;;5124887;28;20054;-67
2022/11/09 04:25:38;;;;;;;5.25;1.70;;;12.10;99.90;;;;;;5128222;28;20071;-68
2022/11/09 04:28:06;;;;;;;9.25;2.28;;;12.00;99.90;;;;;;5109083;28;20130;-64
2022/11/09 04:30:33;;;;;;;9.38;2.00;;;12.00;99.90;;;;;;5106091;28;20051;-65
2022/11/09 04:33:00;;;;;;;7.35;1.90;;;12.10;99.90;;;;;;5105601;28;20043;-67
2022/11/09 04:35:27;;;;;;;6.00;1.98;;;12.10;99.90;;;;;;5110606;28;20443;-68
2022/11/09 04:37:55;;;;;;;4.82;1.65;;;12.00;99.90;;;;;;5104743;28;20038;-67
2022/11/09 04:40:21;;;;;;;8.73;1.92;;;12.00;99.90;;;;;;5112925;27;20237;-67
2022/11/09 04:42:47;;;;;;;6.85;1.90;;;12.00;99.90;;;;;;5101589;28;20973;-65
2022/11/09 04:45:12;;;;;;;6.18;1.55;;;12.00;99.90;;;;;;5110386;28;20051;-67
2022/11/09 04:47:38;;;;;;;7.88;2.22;;;12.00;99.90;;;;;;5107345;28;20549;-67
2022/11/09 04:50:04;;;;;;;7.38;2.45;;;12.00;99.90;;;;;;5109098;28;20485;-65
2022/11/09 04:52:30;;;;;;;5.28;1.58;;;12.00;99.90;;;;;;5109078;28;20071;-68
2022/11/09 04:54:56;;;;;;;6.18;1.63;;;12.00;99.90;;;;;;5107584;28;20438;-66
2022/11/09 04:57:22;;;;;;;10.10;1.77;;;12.00;99.90;;;;;;5108713;28;20040;-66
2022/11/09 04:59:47;;;;;;;6.15;1.98;;;12.00;99.90;;;;;;5108249;28;20027;-66
2022/11/09 05:02:13;;;;;;;7.03;1.88;;;12.00;99.90;;;;;;5104377;28;20032;-66
2022/11/09 05:04:38;;;;;;;6.55;1.75;;;12.00;99.90;;;;;;5108155;28;20046;-65
2022/11/09 05:07:04;;;;;;;6.03;1.65;;;12.00;99.90;;;;;;5111513;28;20070;-66
2022/11/09 05:09:30;;;;;;;6.38;1.88;;;12.00;99.90;;;;;;5112193;27;20129;-66
2022/11/09 05:11:55;;;;;;;7.47;1.60;;;11.90;99.90;;;;;;5121627;27;20063;-65
2022/11/09 05:14:21;;;;;;;6.05;1.98;;;11.90;99.90;;;;;;5109963;27;20118;-66
2022/11/09 05:16:47;;;;;;;6.72;1.70;;;11.90;99.90;;;;;;5114181;27;20470;-66
2022/11/09 05:19:12;;;;;;;6.50;1.70;;;11.90;99.90;;;;;;5110778;27;20110;-66
2022/11/09 05:21:38;;;;;;;6.68;1.88;;;11.90;99.90;;;;;;5109929;27;20043;-68
2022/11/09 05:24:04;;;;;;;5.82;1.48;;;11.90;99.90;;;;;;5112937;27;20386;-66
2022/11/09 05:26:33;;;;;;;6.22;1.90;;;11.90;99.90;;;;;;5115609;27;20043;-65
2022/11/09 05:29:00;;;;;;;8.20;2.47;;;11.90;99.90;;;;;;5111326;27;20079;-66
2022/11/09 05:31:27;;;;;;;6.50;1.77;;;11.80;99.90;;;;;;5112385;27;20049;-65
2022/11/09 05:33:54;;;;;;;9.80;1.98;;;11.90;99.90;;;;;;5108093;27;20219;-65
2022/11/09 05:36:20;;;;;;;9.23;2.40;;;11.80;99.90;;;;;;5117756;27;20043;-66
2022/11/09 05:38:46;;;;;;;6.82;1.70;;;11.80;99.90;;;;;;5108456;28;20167;-66
2022/11/09 05:41:12;;;;;;;6.13;1.48;;;11.80;99.90;;;;;;5113123;27;20390;-67
2022/11/09 05:43:38;;;;;;;7.82;1.75;;;11.80;99.90;;;;;;5090758;27;20092;-66
2022/11/09 05:46:04;;;;;;;8.13;1.50;;;11.80;99.90;;;;;;5130594;27;20084;-64
2022/11/09 05:48:29;;;;;;;6.05;1.67;;;11.70;99.90;;;;;;5113957;27;20063;-67
2022/11/09 05:50:58;;;;;;;8.88;1.60;;;11.70;99.90;;;;;;5110848;27;20043;-64
2022/11/09 05:53:24;;;;;;;7.72;1.75;;;11.60;99.90;;;;;;5110896;27;20057;-64
2022/11/09 05:55:50;;;;;;;6.22;1.90;;;11.60;99.90;;;;;;5112744;27;20061;-65
2022/11/09 05:58:15;;;;;;;12.73;2.08;;;11.60;99.90;;;;;;5113853;27;20043;-65
2022/11/09 06:00:41;;;;;;;8.02;1.92;;;11.60;99.90;;;;;;5112567;27;20047;-65
2022/11/09 06:03:09;;;;;;;9.88;2.17;;;11.50;99.90;;;;;;5112464;27;20031;-67
2022/11/09 06:05:36;;;;;;;6.28;1.60;;;11.60;99.90;;;;;;5108407;27;20035;-66
2022/11/09 06:08:04;;;;;;;5.80;1.60;;;11.60;99.90;;;;;;5109480;27;20046;-63
2022/11/09 06:10:29;;;;;;;9.70;1.90;;;11.50;99.90;;;;;;5122513;27;20034;-67
2022/11/09 06:12:55;;;;;;;5.63;1.83;;;11.50;99.90;;;;;;5114306;27;20073;-67
2022/11/09 06:15:21;;;;;;;9.23;2.30;;;11.50;99.90;;;;;;5114507;27;20046;-67
2022/11/09 06:17:53;;;;;;;7.30;1.60;;;11.50;99.90;;;;;;5110609;27;20154;-66
2022/11/09 06:20:20;;;;;;;9.43;1.85;;;11.60;99.90;;;;;;5111571;27;20434;-68
2022/11/09 06:22:55;;;;;;;6.13;1.98;;;11.50;99.90;;;;;;5095147;27;20117;-67
2022/11/09 06:25:22;;;;;;;9.98;1.63;;;11.50;99.90;;;;;;5097148;27;20042;-68
2022/11/09 06:27:48;;;;;;;8.43;1.50;;;11.50;99.90;;;;;;5132729;27;20051;-67
2022/11/09 06:30:14;;;;;;;7.20;1.60;;;11.50;99.90;;;;;;5112396;27;20049;-67
2022/11/09 06:32:40;;;;;;;9.65;1.60;;;11.50;99.90;;;;;;5111745;27;20062;-68
2022/11/09 06:35:06;;;;;;;10.23;1.85;;;11.50;99.90;;;;;;5114357;27;20035;-66
2022/11/09 06:37:32;;;;;;;8.68;1.60;;;11.50;99.90;;;;;;5112493;27;20373;-68
2022/11/09 06:39:58;;;;;;;8.52;1.67;;;11.50;99.90;;;;;;5109195;27;20114;-67
2022/11/09 06:42:23;;;;;;;6.80;1.63;;;11.50;99.90;;;;;;5111166;27;20035;-67
2022/11/09 06:44:49;;;;;;;9.57;1.90;;;11.50;99.90;;;;;;5101861;27;20130;-67
2022/11/09 06:47:15;;;;;;;7.32;1.70;;;11.50;99.90;;;;;;5114143;27;20087;-67
2022/11/09 06:49:40;;;;;;;7.63;1.45;;;11.50;99.90;;;;;;5095465;27;20047;-67
2022/11/09 06:52:06;;;;;;;8.57;1.55;;;11.50;99.90;;;;;;5113413;27;20432;-67
2022/11/09 06:54:33;;;;;;;13.40;1.83;;;11.50;99.90;;;;;;5113584;27;20399;-67
2022/11/09 06:56:59;;;;;;;11.75;1.92;;;11.50;99.90;;;;;;5107540;27;20040;-68
2022/11/09 06:59:24;;;;;;;7.65;1.90;;;11.40;99.90;;;;;;5112203;27;20379;-68
2022/11/09 07:01:50;;;;;;;9.77;1.67;;;11.40;99.90;;;;;;5093297;27;20097;-68
2022/11/09 07:04:15;;;;;;;4.85;1.20;;;11.40;99.90;;;;;;5111337;27;20477;-68
2022/11/09 07:06:41;;;;;;;8.48;1.65;;;11.30;99.90;;;;;;5100587;27;20046;-67
2022/11/09 07:09:09;;;;;;;6.00;1.40;;;11.40;99.90;;;;;;5111359;27;20046;-66
2022/11/09 07:11:34;;;;;;;8.88;2.15;;;11.30;99.90;;;;;;5111583;27;20031;-67
2022/11/09 07:14:01;;;;;;;7.97;1.92;;;11.30;99.90;;;;;;5111761;27;20390;-66
2022/11/09 07:16:28;;;;;;;8.98;1.70;;;11.30;99.90;;;;;;5110818;27;20422;-68
2022/11/09 07:18:53;;;;;;;9.38;1.73;;;11.30;99.90;;;;;;5104396;27;20125;-67
2022/11/09 07:21:19;;;;;;;6.07;1.63;;;11.40;99.90;;;;;;5111026;27;20126;-67
2022/11/09 07:23:47;;;;;;;8.65;1.58;;;11.30;99.90;;;;;;5109117;27;20129;-67
2022/11/09 07:26:13;;;;;;;6.53;1.73;;;11.40;99.90;;;;;;5094407;27;20038;-68
2022/11/09 07:28:39;;;;;;;10.52;2.05;;;11.40;99.90;;;;;;5108391;27;20105;-67
2022/11/09 07:31:05;;;;;;;11.57;1.85;;;11.40;99.90;;;;;;5110830;28;20078;-67
2022/11/09 07:33:32;;;;;;;11.00;1.65;;;11.40;99.90;;;;;;5107986;27;20051;-67
2022/11/09 07:36:02;;;;;;;11.75;2.08;;;11.40;99.90;;;;;;5109035;27;20049;-67
2022/11/09 07:38:29;;;;;;;10.80;2.05;;;11.40;99.90;;;;;;5113201;27;20046;-67
2022/11/09 07:40:59;;;;;;;11.02;2.20;;;11.50;99.90;;;;;;5109181;27;20041;-68
2022/11/09 07:43:25;;;;;;;9.23;1.98;;;11.50;99.90;;;;;;5112172;27;20076;-67
2022/11/09 07:45:51;;;;;;;10.38;1.75;;;11.40;99.90;;;;;;5110727;27;20039;-67
2022/11/09 07:48:16;;;;;;;13.38;2.22;;;11.50;99.90;;;;;;5112148;27;20035;-67
2022/11/09 07:50:43;;;;;;;9.75;1.70;;;11.50;99.90;;;;;;5112878;28;20431;-67
2022/11/09 07:53:12;;;;;;;10.95;1.98;;;11.60;99.90;;;;;;5107867;27;20084;-66
2022/11/09 07:55:38;;;;;;;10.15;1.98;;;11.60;99.90;;;;;;5093611;28;20466;-67
2022/11/09 07:58:10;;;;;;;10.07;1.95;;;11.60;99.90;;;;;;5112875;28;20458;-68
2022/11/09 08:00:37;;;;;;;9.50;1.53;;;11.70;99.90;;;;;;5112691;27;20093;-68
2022/11/09 08:03:04;;;;;;;10.93;2.10;;;11.70;99.90;;;;;;5095774;27;20436;-67
2022/11/09 08:05:30;;;;;;;13.32;2.08;;;11.70;99.90;;;;;;5093721;28;20066;-67
2022/11/09 08:07:57;;;;;;;9.63;1.98;;;11.80;99.90;;;;;;5112814;27;20039;-67
2022/11/09 08:10:24;;;;;;;13.10;2.38;;;11.80;99.90;;;;;;5112175;28;20031;-68
2022/11/09 08:12:59;;;;;;;8.20;1.73;;;11.80;99.90;;;;;;5112915;28;20437;-67
2022/11/09 08:15:25;;;;;;;9.40;2.10;;;11.80;99.90;;;;;;5110811;28;20043;-68
2022/11/09 08:17:51;;;;;;;6.60;1.90;;;11.90;99.90;;;;;;5111890;28;20039;-66
2022/11/09 08:20:18;;;;;;;9.95;2.35;;;11.90;99.90;;;;;;5112609;28;20027;-67
2022/11/09 08:22:44;;;;;;;9.88;2.20;;;12.00;99.90;;;;;;5111833;28;20538;-66
2022/11/09 08:25:11;;;;;;;9.55;2.55;;;12.00;99.90;;;;;;5111490;28;20047;-68
2022/11/09 08:27:40;;;;;;;7.35;2.00;;;12.00;99.90;;;;;;5110963;28;20413;-68
2022/11/09 08:30:12;;;;;;;8.38;2.15;;;12.10;99.90;;;;;;5112660;28;20047;-67
2022/11/09 08:32:38;;;;;;;10.93;2.08;;;12.10;99.90;;;;;;5112868;28;20043;-67
2022/11/09 08:35:05;;;;;;;10.88;2.08;;;12.20;99.90;;;;;;5112611;28;20035;-68
2022/11/09 08:37:33;;;;;;;8.48;2.13;;;12.20;99.90;;;;;;5106314;28;20382;-68
2022/11/09 08:39:59;;;;;;;12.13;2.97;;;12.20;99.90;;;;;;5112881;28;20482;-68
2022/11/09 08:42:24;;;;;;;12.18;3.55;;;12.30;99.90;;;;;;5112877;27;20045;-68
2022/11/09 08:44:50;;;;;;;8.30;1.95;;;12.40;99.90;;;;;;5116485;27;20050;-67
2022/11/09 08:47:15;;;;;;;8.85;1.90;;;12.50;99.90;;;;;;5116596;27;20401;-68
2022/11/09 08:49:42;;;;;;;9.63;2.20;;;12.60;99.90;;;;;;5116180;27;20047;-67
2022/11/09 08:52:08;;;;;;;9.90;2.13;;;12.70;99.90;;;;;;5116982;27;20042;-68
2022/11/09 08:54:35;;;;;;;9.13;2.08;;;12.80;99.90;;;;;;5100185;27;20561;-70
2022/11/09 08:57:01;;;;;;;11.15;2.10;;;12.90;99.90;;;;;;5116899;27;20045;-66
2022/11/09 08:59:26;;;;;;;7.88;2.28;;;13.00;99.90;;;;;;5112466;27;20039;-68
2022/11/09 09:01:52;;;;;;;9.43;2.30;;;13.10;99.90;;;;;;5108784;27;20031;-66
2022/11/09 09:04:18;;;;;;;8.00;1.95;;;13.10;99.90;;;;;;5113997;27;20093;-67
2022/11/09 09:06:43;;;;;;;10.02;3.40;;;13.10;99.90;;;;;;5115881;27;20031;-67
2022/11/09 09:09:10;;;;;;;10.77;2.22;;;13.10;99.90;;;;;;5116697;27;20092;-67
2022/11/09 09:11:35;;;;;;;8.73;2.10;;;13.00;99.90;;;;;;5116046;27;20494;-67
2022/11/09 09:14:01;;;;;;;13.13;2.42;;;13.00;99.90;;;;;;5113841;27;20035;-66
2022/11/09 09:16:27;;;;;;;10.35;3.08;;;13.00;99.90;;;;;;5093141;27;20095;-67
2022/11/09 09:18:52;;;;;;;11.15;2.53;;;13.10;99.90;;;;;;5115402;27;20074;-67
2022/11/09 09:21:18;;;;;;;11.88;2.47;;;13.30;99.90;;;;;;5115784;27;20031;-67
2022/11/09 09:23:47;;;;;;;11.32;2.35;;;13.50;99.90;;;;;;5115560;27;20454;-66
2022/11/09 09:26:12;;;;;;;13.45;2.83;;;13.60;99.90;;;;;;5097321;27;20042;-67
2022/11/09 09:28:39;;;;;;;9.95;2.88;;;13.70;99.90;;;;;;5114334;27;20057;-67
2022/11/09 09:31:05;;;;;;;9.77;2.35;;;13.80;99.90;;;;;;5115467;27;20047;-67
2022/11/09 09:33:30;;;;;;;8.35;2.30;;;13.90;99.90;;;;;;5098324;27;20039;-66
2022/11/09 09:35:57;;;;;;;8.10;2.60;;;14.00;99.90;;;;;;5113818;27;20374;-67
2022/11/09 09:38:27;;;;;;;7.85;2.13;;;14.10;99.90;;;;;;5115113;27;20051;-68
2022/11/09 09:40:57;;;;;;;10.90;2.13;;;14.00;99.90;;;;;;5115501;27;20398;-66
2022/11/09 09:43:36;;;;;;;8.52;2.47;;;14.10;99.90;;;;;;5115359;27;20511;-68
2022/11/09 09:46:05;;;;;;;9.05;2.85;;;14.10;99.90;;;;;;5096364;27;20035;-67
2022/11/09 09:48:44;;;;;;;9.60;2.40;;;14.20;99.90;;;;;;5112419;27;20050;-67
2022/11/09 09:51:35;;;;;;;7.97;2.25;;;14.10;99.90;;;;;;5110270;27;20046;-67
2022/11/09 09:54:15;;;;;;;9.13;3.10;;;13.90;99.90;;;;;;5109371;28;20043;-67
2022/11/09 09:56:44;;;;;;;7.47;2.50;;;13.80;99.90;;;;;;5113471;27;20487;-67
2022/11/09 09:59:20;;;;;;;8.65;2.25;;;13.70;99.90;;;;;;5096145;27;20039;-67
2022/11/09 10:01:47;;;;;;;10.13;2.50;;;13.70;99.90;;;;;;5115198;27;20393;-67
2022/11/09 10:04:19;;;;;;;12.35;3.13;;;13.70;99.90;;;;;;5114877;27;20035;-66
2022/11/09 10:07:01;;;;;;;7.75;2.22;;;13.70;99.90;;;;;;5115007;27;20078;-68
2022/11/09 10:09:32;;;;;;;11.45;2.33;;;13.60;99.90;;;;;;5114635;27;20046;-67
2022/11/09 10:12:38;;;;;;;12.18;2.70;;;13.60;99.90;;;;;;5110456;27;20428;-66
2022/11/09 10:15:19;;;;;;;12.90;2.70;;;13.70;99.90;;;;;;5112600;27;20497;-66
2022/11/09 10:18:19;;;;;;;8.98;2.60;;;13.90;99.90;;;;;;5131435;27;20039;-68
2022/11/09 10:21:13;;;;;;;11.57;2.40;;;14.00;99.90;;;;;;5114491;27;20497;-67
2022/11/09 10:24:15;;;;;;;12.10;2.95;;;13.90;99.90;;;;;;5114487;27;20043;-66
2022/11/09 10:26:50;;;;;;;12.43;2.92;;;13.80;99.90;;;;;;5114752;27;20051;-68
2022/11/09 10:29:25;;;;;;;9.38;2.50;;;13.70;99.90;;;;;;5114245;27;20047;-68
2022/11/09 10:32:15;;;;;;;8.45;2.15;;;13.70;99.90;;;;;;5114724;27;20116;-68
2022/11/09 10:34:58;;;;;;;9.27;2.47;;;13.60;99.90;;;;;;5114055;27;20443;-67
2022/11/09 10:37:33;;;;;;;12.00;2.80;;;13.60;99.90;;;;;;5114404;27;20393;-68
2022/11/09 10:40:15;;;;;;;10.52;2.60;;;13.60;99.90;;;;;;5114828;27;20477;-67
2022/11/09 10:43:04;;;;;;;12.35;3.05;;;13.60;99.90;;;;;;5114520;27;20091;-67
2022/11/09 10:45:33;;;;;;;12.82;3.33;;;13.60;99.90;;;;;;5114168;27;20490;-66
2022/11/09 10:47:59;;;;;;;12.40;3.03;;;13.60;99.90;;;;;;5097284;27;20039;-67
2022/11/09 10:50:46;;;;;;;15.20;3.17;;;13.80;99.90;;;;;;5112282;27;20047;-67
2022/11/09 10:53:16;;;;;;;10.43;2.97;;;14.00;99.90;;;;;;5113978;27;20058;-67
2022/11/09 10:55:49;;;;;;;12.05;3.08;;;14.30;99.90;;;;;;5114302;27;20039;-67
2022/11/09 10:58:21;;;;;;;12.73;2.75;;;14.30;99.90;;;;;;5114007;27;20375;-66
2022/11/09 11:01:14;;;;;;;10.97;2.70;;;14.40;99.90;;;;;;5114092;27;20042;-67
2022/11/09 11:03:40;;;;;;;10.55;2.25;;;14.60;99.90;;;;;;5107567;27;20039;-66
2022/11/09 11:06:15;;;;;;;10.95;3.55;;;14.70;99.90;;;;;;5116208;27;20045;-68
2022/11/09 11:09:02;;;;;;;8.95;2.38;;;14.70;99.90;;;;;;5111914;27;20039;-67
2022/11/09 11:11:33;;;;;;;8.30;2.10;;;14.80;99.90;;;;;;5110797;27;20092;-67
2022/11/09 11:14:04;;;;;;;6.53;2.00;;;14.80;99.90;;;;;;5097201;27;20418;-66
2022/11/09 11:16:35;;;;;;;10.27;2.15;;;14.60;99.90;;;;;;5114185;27;20489;-68
2022/11/09 11:19:01;;;;;;;12.43;3.03;;;14.40;99.90;;;;;;5114024;27;20096;-67
2022/11/09 11:21:28;;;;;;;10.88;2.83;;;14.20;99.90;;;;;;5113653;27;20069;-67
2022/11/09 11:24:40;;;;;;;12.38;2.10;;;14.20;99.90;;;;;;5112966;27;20071;-68
2022/11/09 11:27:15;;;;;;;8.70;2.10;;;14.00;99.90;;;;;;4992772;28;20513;-67
2022/11/09 11:30:05;;;;;;;8.32;2.42;;;13.90;99.90;;;;;;4990429;28;20394;-66
2022/11/09 11:32:31;;;;;;;8.43;2.08;;;13.70;99.90;;;;;;4992052;28;20144;-68
2022/11/09 11:34:57;;;;;;;8.23;2.03;;;13.60;99.90;;;;;;4992278;28;20038;-67
2022/11/09 11:37:39;;;;;;;9.93;1.65;;;13.50;99.90;;;;;;4991676;28;20044;-65
2022/11/09 11:40:19;;;;;;;15.77;2.25;;;13.40;99.90;;;;;;4990589;28;20045;-68
2022/11/09 11:42:50;;;;;;;9.93;1.80;;;13.30;99.90;;;;;;5003311;28;20464;-67
2022/11/09 11:45:51;;;;;;;10.20;2.25;;;13.30;99.90;;;;;;4978841;28;20056;-68
2022/11/09 11:48:50;;;;;;;8.52;1.98;;;13.30;99.90;;;;;;4969234;28;20046;-68
2022/11/09 11:51:28;;;;;;;11.40;1.75;;;13.50;99.90;;;;;;4969083;28;20120;-67
2022/11/09 11:54:25;;;;;;;8.73;1.90;;;13.60;99.90;;;;;;4972116;28;20038;-67
2022/11/09 11:57:10;;;;;;;9.60;1.88;;;13.70;99.90;;;;;;4936412;28;20051;-67
2022/11/09 11:59:47;;;;;;;9.18;1.98;;;13.70;99.90;;;;;;4961090;28;20042;-68
2022/11/09 12:02:13;;;;;;;11.90;2.80;;;13.60;99.90;;;;;;4956649;28;20496;-69
2022/11/09 12:04:59;;;;;;;7.35;1.83;;;13.70;99.90;;;;;;4979774;28;20090;-67
2022/11/09 12:07:55;;;;;;;10.52;1.88;;;13.70;99.90;;;;;;4952937;28;20059;-68
2022/11/09 12:10:33;;;;;;;7.80;1.92;;;13.60;99.90;;;;;;4971580;28;20058;-68
2022/11/09 12:13:17;;;;;;;9.18;1.92;;;13.60;99.90;;;;;;4972674;28;20046;-68
2022/11/09 12:15:48;;;;;;;6.97;1.80;;;13.60;99.90;;;;;;4971873;28;20101;-67
2022/11/09 12:18:37;;;;;;;7.63;2.10;;;13.70;99.90;;;;;;4975977;28;20089;-67
2022/11/09 12:21:14;;;;;;;7.22;1.50;;;13.70;99.90;;;;;;4951137;28;20043;-67
2022/11/09 12:23:53;;;;;;;10.32;2.00;;;13.80;99.90;;;;;;5016049;28;20091;-68
2022/11/09 12:26:41;;;;;;;10.13;2.05;;;13.80;99.90;;;;;;5012719;28;20194;-68
2022/11/09 12:29:33;;;;;;;8.18;1.70;;;13.80;99.90;;;;;;5030121;28;20500;-67
2022/11/09 12:32:19;;;;;;;8.27;1.70;;;13.80;99.90;;;;;;5011335;28;20061;-68
2022/11/09 12:35:19;;;;;;;5.65;1.58;;;13.90;99.90;;;;;;5078936;28;20267;-67
2022/11/09 12:37:59;;;;;;;5.90;1.67;;;13.80;99.90;;;;;;5095410;28;20202;-67
2022/11/09 12:40:37;;;;;;;7.20;1.70;;;13.80;99.90;;;;;;5076639;28;20040;-66
2022/11/09 12:43:18;;;;;;;9.38;2.00;;;13.70;99.90;;;;;;5093269;28;20188;-66
2022/11/09 12:45:44;;;;;;;9.60;2.00;;;13.60;99.90;;;;;;5093538;28;20532;-67
2022/11/09 12:48:29;;;;;;;10.40;1.92;;;13.60;99.90;;;;;;5090665;28;20041;-67
2022/11/09 12:50:56;;;;;;;8.45;1.70;;;13.50;99.90;;;;;;5091340;28;20067;-67
2022/11/09 12:53:27;;;;;;;8.32;1.65;;;13.50;99.90;;;;;;5093214;28;20401;-67
2022/11/09 12:55:55;;;;;;;8.55;1.63;;;13.50;99.90;;;;;;5089410;28;20036;-67
2022/11/09 12:58:27;;;;;;;7.70;1.88;;;13.50;99.90;;;;;;5089129;28;20032;-68
2022/11/09 13:00:59;;;;;;;8.95;1.58;;;13.50;99.90;;;;;;5095111;28;20051;-66